sensor_id;sensor_type;location;lat;lon;timestamp;temperature;humidity
66057;DHT22;52842;52.666;5.202;2022-12-13T00:00:54;18.90;49.10
66057;DHT22;52842;52.666;5.202;2022-12-13T00:03:21;18.80;49.30
66057;DHT22;52842;52.666;5.202;2022-12-13T00:05:48;18.60;49.60
66057;DHT22;52842;52.666;5.202;2022-12-13T00:08:14;18.50;49.90
66057;DHT22;52842;52.666;5.202;2022-12-13T00:10:41;18.30;50.20
66057;DHT22;52842;52.666;5.202;2022-12-13T00:13:09;18.10;50.40
66057;DHT22;52842;52.666;5.202;2022-12-13T00:15:36;17.90;50.80
66057;DHT22;52842;52.666;5.202;2022-12-13T00:18:02;17.80;51.20
66057;DHT22;52842;52.666;5.202;2022-12-13T00:20:29;17.70;51.50
66057;DHT22;52842;52.666;5.202;2022-12-13T00:22:56;17.60;51.80
66057;DHT22;52842;52.666;5.202;2022-12-13T00:25:22;17.60;52.10
66057;DHT22;52842;52.666;5.202;2022-12-13T00:27:49;17.60;52.30
66057;DHT22;52842;52.666;5.202;2022-12-13T00:30:17;17.70;52.30
66057;DHT22;52842;52.666;5.202;2022-12-13T00:32:44;18.00;51.80
66057;DHT22;52842;52.666;5.202;2022-12-13T00:35:10;18.50;50.90
66057;DHT22;52842;52.666;5.202;2022-12-13T00:37:37;18.90;50.00
66057;DHT22;52842;52.666;5.202;2022-12-13T00:40:04;19.40;49.20
66057;DHT22;52842;52.666;5.202;2022-12-13T00:42:31;19.90;48.20
66057;DHT22;52842;52.666;5.202;2022-12-13T00:44:57;20.20;47.20
66057;DHT22;52842;52.666;5.202;2022-12-13T00:47:25;20.40;46.30
66057;DHT22;52842;52.666;5.202;2022-12-13T00:49:52;20.40;45.80
66057;DHT22;52842;52.666;5.202;2022-12-13T00:52:19;20.30;45.60
66057;DHT22;52842;52.666;5.202;2022-12-13T00:54:45;20.10;46.00
66057;DHT22;52842;52.666;5.202;2022-12-13T00:57:12;19.80;46.50
66057;DHT22;52842;52.666;5.202;2022-12-13T00:59:39;19.50;47.00
66057;DHT22;52842;52.666;5.202;2022-12-13T01:02:05;19.20;47.60
66057;DHT22;52842;52.666;5.202;2022-12-13T01:04:33;18.90;48.10
66057;DHT22;52842;52.666;5.202;2022-12-13T01:07:00;18.60;48.70
66057;DHT22;52842;52.666;5.202;2022-12-13T01:09:27;18.40;49.30
66057;DHT22;52842;52.666;5.202;2022-12-13T01:11:55;18.10;49.90
66057;DHT22;52842;52.666;5.202;2022-12-13T01:14:22;17.90;50.40
66057;DHT22;52842;52.666;5.202;2022-12-13T01:16:48;17.70;51.00
66057;DHT22;52842;52.666;5.202;2022-12-13T01:19:15;17.50;52.00
66057;DHT22;52842;52.666;5.202;2022-12-13T01:21:43;17.40;51.80
66057;DHT22;52842;52.666;5.202;2022-12-13T01:24:10;17.20;52.20
66057;DHT22;52842;52.666;5.202;2022-12-13T01:26:36;17.10;52.50
66057;DHT22;52842;52.666;5.202;2022-12-13T01:29:03;17.00;52.80
66057;DHT22;52842;52.666;5.202;2022-12-13T01:31:30;16.90;52.90
66057;DHT22;52842;52.666;5.202;2022-12-13T01:33:57;16.80;53.20
66057;DHT22;52842;52.666;5.202;2022-12-13T01:36:23;16.80;53.30
66057;DHT22;52842;52.666;5.202;2022-12-13T01:38:51;16.70;53.50
66057;DHT22;52842;52.666;5.202;2022-12-13T01:41:19;16.70;53.60
66057;DHT22;52842;52.666;5.202;2022-12-13T01:43:50;16.80;53.80
66057;DHT22;52842;52.666;5.202;2022-12-13T01:46:17;16.80;53.70
66057;DHT22;52842;52.666;5.202;2022-12-13T01:48:45;16.90;53.70
66057;DHT22;52842;52.666;5.202;2022-12-13T01:51:13;17.00;53.60
66057;DHT22;52842;52.666;5.202;2022-12-13T01:53:41;17.10;53.50
66057;DHT22;52842;52.666;5.202;2022-12-13T01:56:11;17.20;53.30
66057;DHT22;52842;52.666;5.202;2022-12-13T01:58:40;17.30;53.10
66057;DHT22;52842;52.666;5.202;2022-12-13T02:01:07;17.40;52.80
66057;DHT22;52842;52.666;5.202;2022-12-13T02:03:34;17.50;52.60
66057;DHT22;52842;52.666;5.202;2022-12-13T02:06:02;17.70;52.10
66057;DHT22;52842;52.666;5.202;2022-12-13T02:08:30;17.90;51.60
66057;DHT22;52842;52.666;5.202;2022-12-13T02:10:58;18.20;51.00
66057;DHT22;52842;52.666;5.202;2022-12-13T02:13:27;18.40;50.60
66057;DHT22;52842;52.666;5.202;2022-12-13T02:15:56;18.40;50.20
66057;DHT22;52842;52.666;5.202;2022-12-13T02:18:30;18.40;50.00
66057;DHT22;52842;52.666;5.202;2022-12-13T02:21:03;18.30;50.00
66057;DHT22;52842;52.666;5.202;2022-12-13T02:23:46;18.20;50.10
66057;DHT22;52842;52.666;5.202;2022-12-13T02:29:00;17.90;50.40
66057;DHT22;52842;52.666;5.202;2022-12-13T02:31:35;17.80;50.70
66057;DHT22;52842;52.666;5.202;2022-12-13T02:34:07;17.60;51.00
66057;DHT22;52842;52.666;5.202;2022-12-13T02:36:35;17.50;51.30
66057;DHT22;52842;52.666;5.202;2022-12-13T02:39:07;17.50;51.60
66057;DHT22;52842;52.666;5.202;2022-12-13T02:41:35;17.50;51.70
66057;DHT22;52842;52.666;5.202;2022-12-13T02:44:05;17.50;51.80
66057;DHT22;52842;52.666;5.202;2022-12-13T02:46:35;17.50;51.90
66057;DHT22;52842;52.666;5.202;2022-12-13T02:49:03;17.50;51.90
66057;DHT22;52842;52.666;5.202;2022-12-13T02:51:30;17.50;51.80
66057;DHT22;52842;52.666;5.202;2022-12-13T02:53:57;17.50;51.70
66057;DHT22;52842;52.666;5.202;2022-12-13T02:56:24;17.50;51.70
66057;DHT22;52842;52.666;5.202;2022-12-13T02:58:51;17.50;51.60
66057;DHT22;52842;52.666;5.202;2022-12-13T03:01:21;17.50;51.70
66057;DHT22;52842;52.666;5.202;2022-12-13T03:03:53;17.50;51.60
66057;DHT22;52842;52.666;5.202;2022-12-13T03:06:27;17.60;51.70
66057;DHT22;52842;52.666;5.202;2022-12-13T03:08:57;17.50;51.60
66057;DHT22;52842;52.666;5.202;2022-12-13T03:11:33;17.50;51.50
66057;DHT22;52842;52.666;5.202;2022-12-13T03:14:20;17.50;51.50
66057;DHT22;52842;52.666;5.202;2022-12-13T03:16:47;17.60;51.60
66057;DHT22;52842;52.666;5.202;2022-12-13T03:19:18;17.70;52.00
66057;DHT22;52842;52.666;5.202;2022-12-13T03:21:45;17.80;51.10
66057;DHT22;52842;52.666;5.202;2022-12-13T03:24:12;18.00;50.80
66057;DHT22;52842;52.666;5.202;2022-12-13T03:26:39;18.10;50.40
66057;DHT22;52842;52.666;5.202;2022-12-13T03:29:06;18.20;50.10
66057;DHT22;52842;52.666;5.202;2022-12-13T03:31:33;18.30;50.00
66057;DHT22;52842;52.666;5.202;2022-12-13T03:33:59;18.30;49.80
66057;DHT22;52842;52.666;5.202;2022-12-13T03:36:27;18.30;49.70
66057;DHT22;52842;52.666;5.202;2022-12-13T03:38:54;18.50;49.50
66057;DHT22;52842;52.666;5.202;2022-12-13T03:41:22;18.60;49.10
66057;DHT22;52842;52.666;5.202;2022-12-13T03:43:55;18.70;48.80
66057;DHT22;52842;52.666;5.202;2022-12-13T03:46:22;19.00;48.30
66057;DHT22;52842;52.666;5.202;2022-12-13T03:48:48;19.30;47.90
66057;DHT22;52842;52.666;5.202;2022-12-13T03:51:15;19.60;47.30
66057;DHT22;52842;52.666;5.202;2022-12-13T03:53:43;19.90;46.60
66057;DHT22;52842;52.666;5.202;2022-12-13T03:56:10;20.10;46.00
66057;DHT22;52842;52.666;5.202;2022-12-13T03:58:37;20.40;45.40
66057;DHT22;52842;52.666;5.202;2022-12-13T04:01:06;20.50;44.90
66057;DHT22;52842;52.666;5.202;2022-12-13T04:03:34;20.60;44.40
66057;DHT22;52842;52.666;5.202;2022-12-13T04:06:00;20.60;44.20
66057;DHT22;52842;52.666;5.202;2022-12-13T04:08:27;20.50;44.20
66057;DHT22;52842;52.666;5.202;2022-12-13T04:10:55;20.50;44.10
66057;DHT22;52842;52.666;5.202;2022-12-13T04:13:22;20.40;44.30
66057;DHT22;52842;52.666;5.202;2022-12-13T04:15:56;20.30;44.50
66057;DHT22;52842;52.666;5.202;2022-12-13T04:18:23;20.30;44.60
66057;DHT22;52842;52.666;5.202;2022-12-13T04:20:50;20.20;44.80
66057;DHT22;52842;52.666;5.202;2022-12-13T04:23:16;20.20;44.90
66057;DHT22;52842;52.666;5.202;2022-12-13T04:25:43;20.20;45.50
66057;DHT22;52842;52.666;5.202;2022-12-13T04:28:12;20.20;44.80
66057;DHT22;52842;52.666;5.202;2022-12-13T04:30:38;20.00;44.90
66057;DHT22;52842;52.666;5.202;2022-12-13T04:33:05;19.90;45.20
66057;DHT22;52842;52.666;5.202;2022-12-13T04:35:32;19.70;45.40
66057;DHT22;52842;52.666;5.202;2022-12-13T04:37:58;19.70;45.70
66057;DHT22;52842;52.666;5.202;2022-12-13T04:40:25;19.70;45.90
66057;DHT22;52842;52.666;5.202;2022-12-13T04:42:51;19.80;45.90
66057;DHT22;52842;52.666;5.202;2022-12-13T04:45:21;19.90;45.70
66057;DHT22;52842;52.666;5.202;2022-12-13T04:47:48;20.20;45.50
66057;DHT22;52842;52.666;5.202;2022-12-13T04:50:15;20.40;44.90
66057;DHT22;52842;52.666;5.202;2022-12-13T04:52:41;20.70;44.40
66057;DHT22;52842;52.666;5.202;2022-12-13T04:55:08;20.90;44.00
66057;DHT22;52842;52.666;5.202;2022-12-13T04:57:35;21.00;43.40
66057;DHT22;52842;52.666;5.202;2022-12-13T05:00:02;21.10;42.90
66057;DHT22;52842;52.666;5.202;2022-12-13T05:02:30;21.00;42.60
66057;DHT22;52842;52.666;5.202;2022-12-13T05:04:57;20.90;42.70
66057;DHT22;52842;52.666;5.202;2022-12-13T05:07:24;20.60;43.20
66057;DHT22;52842;52.666;5.202;2022-12-13T05:09:51;20.20;43.80
66057;DHT22;52842;52.666;5.202;2022-12-13T05:12:18;19.90;44.40
66057;DHT22;52842;52.666;5.202;2022-12-13T05:14:45;19.60;45.10
66057;DHT22;52842;52.666;5.202;2022-12-13T05:17:11;19.30;45.70
66057;DHT22;52842;52.666;5.202;2022-12-13T05:19:39;19.00;46.30
66057;DHT22;52842;52.666;5.202;2022-12-13T05:22:07;18.70;46.90
66057;DHT22;52842;52.666;5.202;2022-12-13T05:24:41;18.40;47.50
66057;DHT22;52842;52.666;5.202;2022-12-13T05:27:09;18.20;48.30
66057;DHT22;52842;52.666;5.202;2022-12-13T05:29:36;18.00;48.70
66057;DHT22;52842;52.666;5.202;2022-12-13T05:32:03;17.80;49.10
66057;DHT22;52842;52.666;5.202;2022-12-13T05:34:29;17.60;49.50
66057;DHT22;52842;52.666;5.202;2022-12-13T05:36:57;17.50;49.80
66057;DHT22;52842;52.666;5.202;2022-12-13T05:39:24;17.40;50.10
66057;DHT22;52842;52.666;5.202;2022-12-13T05:41:51;17.30;50.30
66057;DHT22;52842;52.666;5.202;2022-12-13T05:44:18;17.20;50.50
66057;DHT22;52842;52.666;5.202;2022-12-13T05:46:45;17.20;50.80
66057;DHT22;52842;52.666;5.202;2022-12-13T05:49:11;17.10;50.90
66057;DHT22;52842;52.666;5.202;2022-12-13T05:51:38;17.10;51.00
66057;DHT22;52842;52.666;5.202;2022-12-13T05:54:06;17.10;51.10
66057;DHT22;52842;52.666;5.202;2022-12-13T05:56:33;17.10;51.10
66057;DHT22;52842;52.666;5.202;2022-12-13T05:58:59;17.20;51.10
66057;DHT22;52842;52.666;5.202;2022-12-13T06:01:26;17.20;51.00
66057;DHT22;52842;52.666;5.202;2022-12-13T06:03:53;17.20;50.90
66057;DHT22;52842;52.666;5.202;2022-12-13T06:06:19;17.20;50.90
66057;DHT22;52842;52.666;5.202;2022-12-13T06:08:46;17.20;50.90
66057;DHT22;52842;52.666;5.202;2022-12-13T06:11:14;17.20;50.90
66057;DHT22;52842;52.666;5.202;2022-12-13T06:13:41;17.20;50.90
66057;DHT22;52842;52.666;5.202;2022-12-13T06:16:08;17.30;50.90
66057;DHT22;52842;52.666;5.202;2022-12-13T06:18:35;17.30;50.90
66057;DHT22;52842;52.666;5.202;2022-12-13T06:21:03;17.30;50.90
66057;DHT22;52842;52.666;5.202;2022-12-13T06:23:30;17.30;50.80
66057;DHT22;52842;52.666;5.202;2022-12-13T06:25:57;17.30;50.80
66057;DHT22;52842;52.666;5.202;2022-12-13T06:28:26;17.30;50.80
66057;DHT22;52842;52.666;5.202;2022-12-13T06:30:52;17.30;50.80
66057;DHT22;52842;52.666;5.202;2022-12-13T06:33:19;17.50;50.80
66057;DHT22;52842;52.666;5.202;2022-12-13T06:35:46;17.60;50.80
66057;DHT22;52842;52.666;5.202;2022-12-13T06:38:12;17.80;51.30
66057;DHT22;52842;52.666;5.202;2022-12-13T06:40:39;18.00;50.20
66057;DHT22;52842;52.666;5.202;2022-12-13T06:43:06;18.30;49.90
66057;DHT22;52842;52.666;5.202;2022-12-13T06:45:38;18.60;49.20
66057;DHT22;52842;52.666;5.202;2022-12-13T06:48:05;18.70;48.60
66057;DHT22;52842;52.666;5.202;2022-12-13T06:50:32;18.80;48.50
66057;DHT22;52842;52.666;5.202;2022-12-13T06:52:59;18.70;48.50
66057;DHT22;52842;52.666;5.202;2022-12-13T06:55:25;18.60;48.60
66057;DHT22;52842;52.666;5.202;2022-12-13T06:57:52;18.50;49.10
66057;DHT22;52842;52.666;5.202;2022-12-13T07:00:19;18.40;49.50
66057;DHT22;52842;52.666;5.202;2022-12-13T07:02:51;18.30;49.90
66057;DHT22;52842;52.666;5.202;2022-12-13T07:05:18;18.20;50.10
66057;DHT22;52842;52.666;5.202;2022-12-13T07:07:45;18.10;50.30
66057;DHT22;52842;52.666;5.202;2022-12-13T07:10:12;18.00;50.50
66057;DHT22;52842;52.666;5.202;2022-12-13T07:12:38;17.90;50.80
66057;DHT22;52842;52.666;5.202;2022-12-13T07:15:06;17.80;51.10
66057;DHT22;52842;52.666;5.202;2022-12-13T07:17:33;17.70;51.50
66057;DHT22;52842;52.666;5.202;2022-12-13T07:20:02;17.60;51.90
66057;DHT22;52842;52.666;5.202;2022-12-13T07:22:29;17.50;52.20
66057;DHT22;52842;52.666;5.202;2022-12-13T07:24:55;17.40;52.40
66057;DHT22;52842;52.666;5.202;2022-12-13T07:27:22;17.30;52.60
66057;DHT22;52842;52.666;5.202;2022-12-13T07:29:49;17.20;52.70
66057;DHT22;52842;52.666;5.202;2022-12-13T07:32:15;17.20;52.90
66057;DHT22;52842;52.666;5.202;2022-12-13T07:34:42;17.20;53.00
66057;DHT22;52842;52.666;5.202;2022-12-13T07:37:10;17.10;52.90
66057;DHT22;52842;52.666;5.202;2022-12-13T07:39:37;17.20;53.00
66057;DHT22;52842;52.666;5.202;2022-12-13T07:42:03;17.20;53.10
66057;DHT22;52842;52.666;5.202;2022-12-13T07:44:30;17.40;53.00
66057;DHT22;52842;52.666;5.202;2022-12-13T07:46:57;17.60;52.60
66057;DHT22;52842;52.666;5.202;2022-12-13T07:49:23;17.90;51.90
66057;DHT22;52842;52.666;5.202;2022-12-13T07:51:50;18.30;51.20
66057;DHT22;52842;52.666;5.202;2022-12-13T07:54:18;18.50;50.60
66057;DHT22;52842;52.666;5.202;2022-12-13T07:56:45;18.50;50.20
66057;DHT22;52842;52.666;5.202;2022-12-13T07:59:12;18.50;50.10
66057;DHT22;52842;52.666;5.202;2022-12-13T08:01:38;18.40;50.20
66057;DHT22;52842;52.666;5.202;2022-12-13T08:04:05;18.30;50.20
66057;DHT22;52842;52.666;5.202;2022-12-13T08:06:33;18.20;50.20
66057;DHT22;52842;52.666;5.202;2022-12-13T08:09:00;18.10;50.30
66057;DHT22;52842;52.666;5.202;2022-12-13T08:11:28;18.00;50.40
66057;DHT22;52842;52.666;5.202;2022-12-13T08:13:55;17.90;50.40
66057;DHT22;52842;52.666;5.202;2022-12-13T08:16:22;17.80;50.50
66057;DHT22;52842;52.666;5.202;2022-12-13T08:18:48;17.70;50.70
66057;DHT22;52842;52.666;5.202;2022-12-13T08:21:15;17.80;50.70
66057;DHT22;52842;52.666;5.202;2022-12-13T08:23:42;18.00;50.50
66057;DHT22;52842;52.666;5.202;2022-12-13T08:26:08;18.20;50.30
66057;DHT22;52842;52.666;5.202;2022-12-13T08:28:36;18.40;50.00
66057;DHT22;52842;52.666;5.202;2022-12-13T08:31:03;18.50;49.80
66057;DHT22;52842;52.666;5.202;2022-12-13T08:33:32;18.50;49.60
66057;DHT22;52842;52.666;5.202;2022-12-13T08:36:05;18.40;49.50
66057;DHT22;52842;52.666;5.202;2022-12-13T08:38:32;18.40;49.50
66057;DHT22;52842;52.666;5.202;2022-12-13T08:40:59;18.30;49.40
66057;DHT22;52842;52.666;5.202;2022-12-13T08:43:25;18.20;49.60
66057;DHT22;52842;52.666;5.202;2022-12-13T08:45:53;18.00;49.70
66057;DHT22;52842;52.666;5.202;2022-12-13T08:48:20;17.90;50.00
66057;DHT22;52842;52.666;5.202;2022-12-13T08:50:47;17.70;50.30
66057;DHT22;52842;52.666;5.202;2022-12-13T08:53:13;17.60;50.50
66057;DHT22;52842;52.666;5.202;2022-12-13T08:55:40;17.50;50.80
66057;DHT22;52842;52.666;5.202;2022-12-13T08:58:07;17.40;51.10
66057;DHT22;52842;52.666;5.202;2022-12-13T09:00:33;17.40;51.40
66057;DHT22;52842;52.666;5.202;2022-12-13T09:03:02;17.50;51.50
66057;DHT22;52842;52.666;5.202;2022-12-13T09:05:29;17.60;51.50
66057;DHT22;52842;52.666;5.202;2022-12-13T09:07:56;17.80;51.30
66057;DHT22;52842;52.666;5.202;2022-12-13T09:10:23;17.90;51.10
66057;DHT22;52842;52.666;5.202;2022-12-13T09:12:50;18.00;50.70
66057;DHT22;52842;52.666;5.202;2022-12-13T09:15:17;18.10;50.50
66057;DHT22;52842;52.666;5.202;2022-12-13T09:17:44;18.20;50.40
66057;DHT22;52842;52.666;5.202;2022-12-13T09:20:12;18.30;50.20
66057;DHT22;52842;52.666;5.202;2022-12-13T09:22:39;18.40;50.60
66057;DHT22;52842;52.666;5.202;2022-12-13T09:25:06;18.40;50.00
66057;DHT22;52842;52.666;5.202;2022-12-13T09:27:33;18.50;49.80
66057;DHT22;52842;52.666;5.202;2022-12-13T09:30:00;18.50;49.70
66057;DHT22;52842;52.666;5.202;2022-12-13T09:32:26;18.50;49.40
66057;DHT22;52842;52.666;5.202;2022-12-13T09:34:53;18.50;49.40
66057;DHT22;52842;52.666;5.202;2022-12-13T09:37:21;18.40;49.30
66057;DHT22;52842;52.666;5.202;2022-12-13T09:39:48;18.40;49.50
66057;DHT22;52842;52.666;5.202;2022-12-13T09:42:16;18.30;49.70
66057;DHT22;52842;52.666;5.202;2022-12-13T09:44:46;18.30;49.90
66057;DHT22;52842;52.666;5.202;2022-12-13T09:47:16;18.30;50.20
66057;DHT22;52842;52.666;5.202;2022-12-13T09:49:46;18.20;50.70
66057;DHT22;52842;52.666;5.202;2022-12-13T09:52:14;18.10;51.10
66057;DHT22;52842;52.666;5.202;2022-12-13T09:54:44;18.00;51.50
66057;DHT22;52842;52.666;5.202;2022-12-13T09:57:13;17.80;52.60
66057;DHT22;52842;52.666;5.202;2022-12-13T09:59:41;17.70;52.40
66057;DHT22;52842;52.666;5.202;2022-12-13T10:02:14;17.80;52.60
66057;DHT22;52842;52.666;5.202;2022-12-13T10:04:41;17.90;52.40
66057;DHT22;52842;52.666;5.202;2022-12-13T10:07:09;18.10;52.20
66057;DHT22;52842;52.666;5.202;2022-12-13T10:09:41;18.20;51.90
66057;DHT22;52842;52.666;5.202;2022-12-13T10:12:10;18.30;52.30
66057;DHT22;52842;52.666;5.202;2022-12-13T10:14:39;18.50;51.50
66057;DHT22;52842;52.666;5.202;2022-12-13T10:17:08;18.60;51.30
66057;DHT22;52842;52.666;5.202;2022-12-13T10:19:40;18.70;51.00
66057;DHT22;52842;52.666;5.202;2022-12-13T10:22:10;18.70;50.80
66057;DHT22;52842;52.666;5.202;2022-12-13T10:24:47;18.70;50.70
66057;DHT22;52842;52.666;5.202;2022-12-13T10:27:15;18.70;50.70
66057;DHT22;52842;52.666;5.202;2022-12-13T10:29:55;18.50;50.80
66057;DHT22;52842;52.666;5.202;2022-12-13T10:32:22;18.40;51.20
66057;DHT22;52842;52.666;5.202;2022-12-13T10:34:49;18.20;51.50
66057;DHT22;52842;52.666;5.202;2022-12-13T10:37:19;18.10;51.90
66057;DHT22;52842;52.666;5.202;2022-12-13T10:39:51;17.90;52.20
66057;DHT22;52842;52.666;5.202;2022-12-13T10:42:20;17.80;52.40
66057;DHT22;52842;52.666;5.202;2022-12-13T10:44:47;17.70;52.50
66057;DHT22;52842;52.666;5.202;2022-12-13T10:47:15;17.80;52.30
66057;DHT22;52842;52.666;5.202;2022-12-13T10:49:47;17.80;52.00
66057;DHT22;52842;52.666;5.202;2022-12-13T10:52:22;17.90;51.90
66057;DHT22;52842;52.666;5.202;2022-12-13T10:54:50;17.90;51.80
66057;DHT22;52842;52.666;5.202;2022-12-13T10:57:17;17.90;51.70
66057;DHT22;52842;52.666;5.202;2022-12-13T10:59:46;17.90;51.70
66057;DHT22;52842;52.666;5.202;2022-12-13T11:02:27;17.90;51.80
66057;DHT22;52842;52.666;5.202;2022-12-13T11:04:55;17.90;51.80
66057;DHT22;52842;52.666;5.202;2022-12-13T11:07:23;17.90;52.00
66057;DHT22;52842;52.666;5.202;2022-12-13T11:09:50;17.90;52.10
66057;DHT22;52842;52.666;5.202;2022-12-13T11:12:18;17.90;52.20
66057;DHT22;52842;52.666;5.202;2022-12-13T11:14:49;17.80;52.30
66057;DHT22;52842;52.666;5.202;2022-12-13T11:17:19;17.70;52.70
66057;DHT22;52842;52.666;5.202;2022-12-13T11:19:47;17.60;53.00
66057;DHT22;52842;52.666;5.202;2022-12-13T11:22:18;17.50;53.30
66057;DHT22;52842;52.666;5.202;2022-12-13T11:24:48;17.40;53.60
66057;DHT22;52842;52.666;5.202;2022-12-13T11:27:28;17.40;53.80
66057;DHT22;52842;52.666;5.202;2022-12-13T11:30:07;17.30;53.80
66057;DHT22;52842;52.666;5.202;2022-12-13T11:32:39;17.40;53.90
66057;DHT22;52842;52.666;5.202;2022-12-13T11:35:13;17.40;53.90
66057;DHT22;52842;52.666;5.202;2022-12-13T11:37:44;17.50;53.80
66057;DHT22;52842;52.666;5.202;2022-12-13T11:40:15;17.60;53.70
66057;DHT22;52842;52.666;5.202;2022-12-13T11:42:43;17.80;53.50
66057;DHT22;52842;52.666;5.202;2022-12-13T11:45:13;17.90;53.30
66057;DHT22;52842;52.666;5.202;2022-12-13T11:47:42;18.00;53.00
66057;DHT22;52842;52.666;5.202;2022-12-13T11:50:14;18.10;52.80
66057;DHT22;52842;52.666;5.202;2022-12-13T11:52:43;18.10;52.70
66057;DHT22;52842;52.666;5.202;2022-12-13T11:55:13;18.10;52.60
66057;DHT22;52842;52.666;5.202;2022-12-13T11:57:42;18.10;52.50
66057;DHT22;52842;52.666;5.202;2022-12-13T12:00:19;18.10;52.90
66057;DHT22;52842;52.666;5.202;2022-12-13T12:02:48;18.20;52.70
66057;DHT22;52842;52.666;5.202;2022-12-13T12:05:21;18.10;52.00
66057;DHT22;52842;52.666;5.202;2022-12-13T12:07:52;18.00;52.20
66057;DHT22;52842;52.666;5.202;2022-12-13T12:10:22;17.90;52.40
66057;DHT22;52842;52.666;5.202;2022-12-13T12:12:54;17.70;52.70
66057;DHT22;52842;52.666;5.202;2022-12-13T12:15:23;17.60;52.90
66057;DHT22;52842;52.666;5.202;2022-12-13T12:17:51;17.50;53.10
66057;DHT22;52842;52.666;5.202;2022-12-13T12:20:18;17.40;53.30
66057;DHT22;52842;52.666;5.202;2022-12-13T12:22:48;17.30;53.30
66057;DHT22;52842;52.666;5.202;2022-12-13T12:25:21;17.40;53.20
66057;DHT22;52842;52.666;5.202;2022-12-13T12:27:50;17.40;53.10
66057;DHT22;52842;52.666;5.202;2022-12-13T12:30:24;17.40;52.70
66057;DHT22;52842;52.666;5.202;2022-12-13T12:32:53;17.40;52.60
66057;DHT22;52842;52.666;5.202;2022-12-13T12:38:11;17.30;52.40
66057;DHT22;52842;52.666;5.202;2022-12-13T12:40:43;17.20;52.40
66057;DHT22;52842;52.666;5.202;2022-12-13T12:43:17;17.10;53.20
66057;DHT22;52842;52.666;5.202;2022-12-13T12:45:53;17.00;52.80
66057;DHT22;52842;52.666;5.202;2022-12-13T12:48:25;16.90;53.10
66057;DHT22;52842;52.666;5.202;2022-12-13T12:50:55;16.80;53.30
66057;DHT22;52842;52.666;5.202;2022-12-13T12:53:28;16.70;53.50
66057;DHT22;52842;52.666;5.202;2022-12-13T12:55:59;16.60;53.70
66057;DHT22;52842;52.666;5.202;2022-12-13T12:58:29;16.50;53.90
66057;DHT22;52842;52.666;5.202;2022-12-13T13:01:03;16.40;54.20
66057;DHT22;52842;52.666;5.202;2022-12-13T13:03:35;16.40;54.50
66057;DHT22;52842;52.666;5.202;2022-12-13T13:06:03;16.30;54.80
66057;DHT22;52842;52.666;5.202;2022-12-13T13:08:34;16.20;55.00
66057;DHT22;52842;52.666;5.202;2022-12-13T13:11:03;16.10;55.30
66057;DHT22;52842;52.666;5.202;2022-12-13T13:13:42;16.10;55.60
66057;DHT22;52842;52.666;5.202;2022-12-13T13:18:53;15.90;56.20
66057;DHT22;52842;52.666;5.202;2022-12-13T13:24:12;15.80;56.70
66057;DHT22;52842;52.666;5.202;2022-12-13T13:26:40;15.70;57.00
66057;DHT22;52842;52.666;5.202;2022-12-13T13:32:02;15.60;57.30
66057;DHT22;52842;52.666;5.202;2022-12-13T13:34:31;15.50;57.40
66057;DHT22;52842;52.666;5.202;2022-12-13T13:36:59;15.50;57.60
66057;DHT22;52842;52.666;5.202;2022-12-13T13:39:36;15.40;57.20
66057;DHT22;52842;52.666;5.202;2022-12-13T13:42:15;15.40;57.80
66057;DHT22;52842;52.666;5.202;2022-12-13T13:44:52;15.30;57.90
66057;DHT22;52842;52.666;5.202;2022-12-13T13:53:02;15.10;58.40
66057;DHT22;52842;52.666;5.202;2022-12-13T13:55:39;15.10;58.50
66057;DHT22;52842;52.666;5.202;2022-12-13T14:09:23;14.90;59.10
66057;DHT22;52842;52.666;5.202;2022-12-13T14:11:59;14.90;59.10
66057;DHT22;52842;52.666;5.202;2022-12-13T14:14:36;14.80;58.30
66057;DHT22;52842;52.666;5.202;2022-12-13T14:22:38;14.90;58.00
66057;DHT22;52842;52.666;5.202;2022-12-13T14:25:18;15.00;58.00
66057;DHT22;52842;52.666;5.202;2022-12-13T14:27:48;15.00;57.90
66057;DHT22;52842;52.666;5.202;2022-12-13T14:30:17;15.10;57.70
66057;DHT22;52842;52.666;5.202;2022-12-13T14:32:45;15.30;57.90
66057;DHT22;52842;52.666;5.202;2022-12-13T14:35:20;15.50;56.80
66057;DHT22;52842;52.666;5.202;2022-12-13T14:37:54;15.60;56.60
66057;DHT22;52842;52.666;5.202;2022-12-13T14:40:26;15.60;56.50
66057;DHT22;52842;52.666;5.202;2022-12-13T14:42:53;15.50;56.50
66057;DHT22;52842;52.666;5.202;2022-12-13T14:45:21;15.50;56.50
66057;DHT22;52842;52.666;5.202;2022-12-13T14:47:48;15.50;56.60
66057;DHT22;52842;52.666;5.202;2022-12-13T14:50:16;15.50;56.50
66057;DHT22;52842;52.666;5.202;2022-12-13T14:52:43;15.60;56.30
66057;DHT22;52842;52.666;5.202;2022-12-13T14:55:19;15.70;56.10
66057;DHT22;52842;52.666;5.202;2022-12-13T14:57:51;15.80;55.60
66057;DHT22;52842;52.666;5.202;2022-12-13T15:00:20;15.90;55.20
66057;DHT22;52842;52.666;5.202;2022-12-13T15:02:48;16.10;54.90
66057;DHT22;52842;52.666;5.202;2022-12-13T15:05:18;16.20;54.60
66057;DHT22;52842;52.666;5.202;2022-12-13T15:07:48;16.40;54.60
66057;DHT22;52842;52.666;5.202;2022-12-13T15:10:18;16.50;54.50
66057;DHT22;52842;52.666;5.202;2022-12-13T15:12:46;16.60;54.50
66057;DHT22;52842;52.666;5.202;2022-12-13T15:15:19;16.50;54.50
66057;DHT22;52842;52.666;5.202;2022-12-13T15:17:47;16.40;54.80
66057;DHT22;52842;52.666;5.202;2022-12-13T15:20:20;16.40;55.10
66057;DHT22;52842;52.666;5.202;2022-12-13T15:22:47;16.50;55.10
66057;DHT22;52842;52.666;5.202;2022-12-13T15:25:14;16.60;55.00
66057;DHT22;52842;52.666;5.202;2022-12-13T15:28:00;16.70;55.00
66057;DHT22;52842;52.666;5.202;2022-12-13T15:30:29;16.80;54.90
66057;DHT22;52842;52.666;5.202;2022-12-13T15:33:00;16.90;54.70
66057;DHT22;52842;52.666;5.202;2022-12-13T15:35:27;17.00;54.60
66057;DHT22;52842;52.666;5.202;2022-12-13T15:37:54;17.10;54.40
66057;DHT22;52842;52.666;5.202;2022-12-13T15:40:21;17.20;54.20
66057;DHT22;52842;52.666;5.202;2022-12-13T15:42:47;17.30;54.00
66057;DHT22;52842;52.666;5.202;2022-12-13T15:45:18;17.40;53.90
66057;DHT22;52842;52.666;5.202;2022-12-13T15:47:45;17.50;53.70
66057;DHT22;52842;52.666;5.202;2022-12-13T15:50:27;17.50;53.60
66057;DHT22;52842;52.666;5.202;2022-12-13T15:52:57;17.60;53.40
66057;DHT22;52842;52.666;5.202;2022-12-13T15:55:25;17.60;53.20
66057;DHT22;52842;52.666;5.202;2022-12-13T15:57:57;17.70;53.00
66057;DHT22;52842;52.666;5.202;2022-12-13T16:00:26;17.70;52.80
66057;DHT22;52842;52.666;5.202;2022-12-13T16:02:54;17.70;52.60
66057;DHT22;52842;52.666;5.202;2022-12-13T16:05:23;17.70;52.60
66057;DHT22;52842;52.666;5.202;2022-12-13T16:07:50;17.60;52.80
66057;DHT22;52842;52.666;5.202;2022-12-13T16:10:17;17.40;53.10
66057;DHT22;52842;52.666;5.202;2022-12-13T16:12:45;17.30;53.40
66057;DHT22;52842;52.666;5.202;2022-12-13T16:15:15;17.10;53.70